createdAt,value
2018-09-20T00:00:17.464Z,24.02
2018-09-20T00:02:44.108Z,24.02
2018-09-20T00:05:10.837Z,24.01
2018-09-20T00:07:37.545Z,23.97
2018-09-20T00:10:04.182Z,23.98
2018-09-20T00:12:30.830Z,23.98
2018-09-20T00:14:57.501Z,23.94
2018-09-20T00:17:24.137Z,23.97
2018-09-20T00:19:50.864Z,23.90
2018-09-20T00:22:17.508Z,23.92
2018-09-20T00:24:44.185Z,23.90
2018-09-20T00:27:13.769Z,23.90
2018-09-20T00:29:40.430Z,23.90
2018-09-20T00:32:07.126Z,23.84
2018-09-20T00:34:33.762Z,23.89
2018-09-20T00:37:00.401Z,23.83
2018-09-20T00:39:27.081Z,23.85
2018-09-20T00:41:53.696Z,23.84
2018-09-20T00:44:20.384Z,23.85
2018-09-20T00:46:47.124Z,23.82
2018-09-20T00:49:13.783Z,23.83
2018-09-20T00:51:40.473Z,23.80
2018-09-20T00:54:07.109Z,23.79
2018-09-20T00:56:33.838Z,23.82
2018-09-20T00:59:00.490Z,23.82
2018-09-20T01:01:27.187Z,23.81
2018-09-20T01:03:53.808Z,23.74
2018-09-20T01:06:20.458Z,23.74
2018-09-20T01:08:47.089Z,23.73
2018-09-20T01:11:13.754Z,23.71
2018-09-20T01:13:40.434Z,23.76
2018-09-20T01:16:07.181Z,23.75
2018-09-20T01:18:33.815Z,23.71
2018-09-20T01:21:00.473Z,23.68
2018-09-20T01:23:27.193Z,23.69
2018-09-20T01:25:53.834Z,23.69
2018-09-20T01:28:20.474Z,23.67
2018-09-20T01:30:47.246Z,23.68
2018-09-20T01:33:16.928Z,23.63
2018-09-20T01:35:43.574Z,23.70
2018-09-20T01:38:10.326Z,23.72
2018-09-20T01:40:36.973Z,23.67
2018-09-20T01:43:08.731Z,23.68
2018-09-20T01:45:35.416Z,23.60
2018-09-20T01:48:02.065Z,23.59
2018-09-20T01:50:28.708Z,23.56
2018-09-20T01:52:55.443Z,23.59
2018-09-20T01:55:25.051Z,23.54
2018-09-20T01:57:51.732Z,23.54
2018-09-20T02:00:18.415Z,23.58
2018-09-20T02:02:45.089Z,23.58
2018-09-20T02:05:11.689Z,23.57
2018-09-20T02:07:38.329Z,23.57
2018-09-20T02:10:04.988Z,23.54
2018-09-20T02:12:34.836Z,23.56
2018-09-20T02:15:01.510Z,23.50
2018-09-20T02:17:28.288Z,23.46
2018-09-20T02:19:54.924Z,23.52
2018-09-20T02:22:21.654Z,23.49
2018-09-20T02:24:48.294Z,23.53
2018-09-20T02:27:15.330Z,23.46
2018-09-20T02:29:41.970Z,23.42
2018-09-20T02:32:08.709Z,23.52
2018-09-20T02:34:35.345Z,23.52
2018-09-20T02:37:02.187Z,23.47
2018-09-20T02:39:28.824Z,23.47
2018-09-20T02:41:55.466Z,23.45
2018-09-20T02:44:22.116Z,23.48
2018-09-20T02:46:48.758Z,23.43
2018-09-20T02:49:15.398Z,23.48
2018-09-20T02:51:42.034Z,23.43
2018-09-20T02:54:10.030Z,23.42
2018-09-20T02:56:35.378Z,23.44
2018-09-20T02:59:02.256Z,23.35
2018-09-20T03:01:29.298Z,23.38
2018-09-20T03:03:56.005Z,23.44
2018-09-20T03:06:22.654Z,23.37
2018-09-20T03:08:49.290Z,23.41
2018-09-20T03:11:15.939Z,23.40
2018-09-20T03:13:42.602Z,23.35
2018-09-20T03:16:09.225Z,23.28
2018-09-20T03:18:35.878Z,23.15
2018-09-20T03:21:02.537Z,23.14
2018-09-20T03:23:29.173Z,23.16
2018-09-20T03:25:55.927Z,23.11
2018-09-20T03:28:22.586Z,23.03
2018-09-20T03:30:51.748Z,23.11
2018-09-20T03:33:18.328Z,23.10
2018-09-20T03:35:44.974Z,23.02
2018-09-20T03:38:11.684Z,22.98
2018-09-20T03:40:39.450Z,22.90
2018-09-20T03:43:06.094Z,23.08
2018-09-20T03:45:32.751Z,23.03
2018-09-20T03:47:59.399Z,22.90
2018-09-20T03:50:26.076Z,23.03
2018-09-20T03:52:52.760Z,22.98
2018-09-20T03:55:19.539Z,22.92
2018-09-20T03:57:46.241Z,22.98
2018-09-20T04:00:12.878Z,22.97
2018-09-20T04:02:42.385Z,22.90
2018-09-20T04:05:09.033Z,22.92
2018-09-20T04:07:37.024Z,22.81
2018-09-20T04:10:02.433Z,22.82
2018-09-20T04:12:29.110Z,22.89
2018-09-20T04:14:55.921Z,22.81
2018-09-20T04:17:22.559Z,22.92
2018-09-20T04:19:49.198Z,22.85
2018-09-20T04:22:15.849Z,22.93
2018-09-20T04:24:42.573Z,22.91
2018-09-20T04:27:09.226Z,22.87
2018-09-20T04:29:35.964Z,22.92
2018-09-20T04:32:02.645Z,22.99
2018-09-20T04:34:29.662Z,22.98
2018-09-20T04:36:56.312Z,23.14
2018-09-20T04:39:23.014Z,23.24
2018-09-20T04:41:49.711Z,23.36
2018-09-20T04:44:16.356Z,23.48
2018-09-20T04:46:43.003Z,23.53
2018-09-20T04:49:09.753Z,23.49
2018-09-20T04:51:36.486Z,23.64
2018-09-20T04:54:03.136Z,23.73
2018-09-20T04:56:29.810Z,23.72
2018-09-20T04:58:56.590Z,23.84
2018-09-20T05:01:23.361Z,23.82
2018-09-20T05:03:49.982Z,23.86
2018-09-20T05:06:16.652Z,23.87
2018-09-20T05:08:46.681Z,23.96
2018-09-20T05:11:13.459Z,24.02
2018-09-20T05:13:42.617Z,24.10
2018-09-20T05:16:06.842Z,24.06
2018-09-20T05:18:33.489Z,24.11
2018-09-20T05:21:00.182Z,24.13
2018-09-20T05:23:26.916Z,24.19
2018-09-20T05:25:53.502Z,24.23
2018-09-20T05:28:20.153Z,24.29
2018-09-20T05:30:46.937Z,24.40
2018-09-20T05:33:13.636Z,24.46
2018-09-20T05:35:40.270Z,24.44
2018-09-20T05:38:06.911Z,24.47
2018-09-20T05:40:33.607Z,24.55
2018-09-20T05:43:00.315Z,24.63
2018-09-20T05:45:27.034Z,24.69
2018-09-20T05:47:55.827Z,24.75
2018-09-20T05:50:20.394Z,24.75
2018-09-20T05:52:47.043Z,24.84
2018-09-20T05:55:13.825Z,24.90
2018-09-20T05:57:40.470Z,24.88
2018-09-20T06:00:07.272Z,24.95
2018-09-20T06:02:33.904Z,25.01
2018-09-20T06:05:00.537Z,25.13
2018-09-20T06:07:27.221Z,25.17
2018-09-20T06:09:53.940Z,25.14
2018-09-20T06:12:20.571Z,25.23
2018-09-20T06:14:47.231Z,25.17
2018-09-20T06:17:13.866Z,25.23
2018-09-20T06:19:40.536Z,25.34
2018-09-20T06:22:07.232Z,25.33
2018-09-20T06:24:33.938Z,25.37
2018-09-20T06:27:00.720Z,25.50
2018-09-20T06:29:27.375Z,25.50
2018-09-20T06:31:54.150Z,25.49
2018-09-20T06:34:20.807Z,25.51
2018-09-20T06:36:47.584Z,25.54
2018-09-20T06:39:14.190Z,25.35
2018-09-20T06:41:40.850Z,25.18
2018-09-20T06:44:07.530Z,25.21
2018-09-20T06:46:35.643Z,25.08
2018-09-20T06:49:00.893Z,25.22
2018-09-20T06:51:27.540Z,25.35
2018-09-20T06:53:54.281Z,25.43
2018-09-20T06:56:20.968Z,25.57
2018-09-20T06:58:47.871Z,25.53
2018-09-20T07:01:14.498Z,25.59
2018-09-20T07:03:41.170Z,25.38
2018-09-20T07:06:07.861Z,25.35
2018-09-20T07:08:34.581Z,25.39
2018-09-20T07:11:01.195Z,25.30
2018-09-20T07:13:28.232Z,25.31
2018-09-20T07:15:57.040Z,25.49
2018-09-20T07:18:23.833Z,25.58
2018-09-20T07:20:50.588Z,25.81
2018-09-20T07:23:17.553Z,25.71
2018-09-20T07:25:44.221Z,25.77
2018-09-20T07:28:10.892Z,25.66
2018-09-20T07:30:37.537Z,25.60
2018-09-20T07:33:05.359Z,25.59
2018-09-20T07:35:32.072Z,25.40
2018-09-20T07:37:58.751Z,25.29
2018-09-20T07:40:25.448Z,25.34
2018-09-20T07:42:52.261Z,25.47
2018-09-20T07:45:19.003Z,25.52
2018-09-20T07:47:45.672Z,25.65
2018-09-20T07:50:12.309Z,25.67
2018-09-20T07:52:41.575Z,25.72
2018-09-20T07:55:08.224Z,25.68
2018-09-20T07:57:34.939Z,25.48
2018-09-20T08:00:01.693Z,25.27
2018-09-20T08:02:28.456Z,25.26
2018-09-20T08:04:55.293Z,25.14
2018-09-20T08:07:21.929Z,25.38
2018-09-20T08:09:48.744Z,25.46
2018-09-20T08:12:15.451Z,25.50
2018-09-20T08:14:42.087Z,25.56
2018-09-20T08:20:03.909Z,25.40
2018-09-20T08:22:30.606Z,25.20
2018-09-20T08:24:57.341Z,25.20
2018-09-20T08:27:24.076Z,25.24
2018-09-20T08:29:50.721Z,25.33
2018-09-20T08:32:17.368Z,25.41
2018-09-20T08:34:44.072Z,25.50
2018-09-20T08:37:10.767Z,25.55
2018-09-20T08:39:37.354Z,25.68
2018-09-20T08:42:04.118Z,25.71
2018-09-20T08:44:30.939Z,25.82
2018-09-20T08:46:57.614Z,25.36
2018-09-20T08:49:24.224Z,25.37
2018-09-20T08:51:50.880Z,25.24
2018-09-20T08:54:17.641Z,25.28
2018-09-20T08:56:44.430Z,25.41
2018-09-20T08:59:12.313Z,25.41
2018-09-20T09:01:37.733Z,25.66
2018-09-20T09:04:04.399Z,25.71
2018-09-20T09:06:32.587Z,25.67
2018-09-20T09:08:58.322Z,25.85
2018-09-20T09:11:24.922Z,25.85
2018-09-20T09:13:51.700Z,25.28
2018-09-20T09:16:18.295Z,25.49
2018-09-20T09:18:45.006Z,25.41
2018-09-20T09:21:11.689Z,25.55
2018-09-20T09:23:38.485Z,25.64
2018-09-20T09:26:05.224Z,25.79
2018-09-20T09:28:31.938Z,25.82
2018-09-20T09:30:58.530Z,25.84
2018-09-20T09:33:25.224Z,25.45
2018-09-20T09:35:51.918Z,25.37
2018-09-20T09:38:18.620Z,25.32
2018-09-20T09:40:45.292Z,25.29
2018-09-20T09:43:12.096Z,25.42
2018-09-20T09:45:38.756Z,25.56
2018-09-20T09:48:08.481Z,25.61
2018-09-20T09:50:35.216Z,25.58
2018-09-20T09:53:03.142Z,25.75
2018-09-20T09:55:30.436Z,25.76
2018-09-20T09:57:55.199Z,25.74
2018-09-20T10:00:21.946Z,25.12
2018-09-20T10:02:48.606Z,25.26
2018-09-20T10:05:15.277Z,25.32
2018-09-20T10:07:42.041Z,25.53
2018-09-20T10:10:08.721Z,25.62
2018-09-20T10:12:35.434Z,25.77
2018-09-20T10:15:02.204Z,25.78
2018-09-20T10:17:28.844Z,25.49
2018-09-20T10:19:55.513Z,24.94
2018-09-20T10:22:22.143Z,25.10
2018-09-20T10:24:48.897Z,25.03
2018-09-20T10:27:15.611Z,24.65
2018-09-20T10:29:42.304Z,25.14
2018-09-20T10:32:08.973Z,25.47
2018-09-20T10:34:37.091Z,25.56
2018-09-20T10:37:02.382Z,25.67
2018-09-20T10:39:29.047Z,25.71
2018-09-20T10:41:55.715Z,25.78
2018-09-20T10:44:22.409Z,25.05
2018-09-20T10:46:49.253Z,25.32
2018-09-20T10:49:15.948Z,25.11
2018-09-20T10:51:42.584Z,25.23
2018-09-20T10:54:09.233Z,25.16
2018-09-20T10:56:35.894Z,25.42
2018-09-20T10:59:02.576Z,25.64
2018-09-20T11:01:29.225Z,25.69
2018-09-20T11:03:55.891Z,25.75
2018-09-20T11:06:22.697Z,25.39
2018-09-20T11:08:49.443Z,25.08
2018-09-20T11:11:16.139Z,24.76
2018-09-20T11:13:42.799Z,24.70
2018-09-20T11:16:09.500Z,25.51
2018-09-20T11:18:36.154Z,25.62
2018-09-20T11:21:02.923Z,25.72
2018-09-20T11:23:29.578Z,25.80
2018-09-20T11:25:57.403Z,25.83
2018-09-20T11:28:23.948Z,25.27
2018-09-20T11:30:50.600Z,25.04
2018-09-20T11:33:17.281Z,24.75
2018-09-20T11:35:43.928Z,25.01
2018-09-20T11:38:10.673Z,24.83
2018-09-20T11:40:37.331Z,24.86
2018-09-20T11:43:05.027Z,25.43
2018-09-20T11:45:32.701Z,25.73
2018-09-20T11:48:01.054Z,25.69
2018-09-20T11:50:26.182Z,25.77
2018-09-20T11:52:52.798Z,25.74
2018-09-20T11:55:19.459Z,25.98
2018-09-20T11:57:46.110Z,26.11
2018-09-20T12:00:12.818Z,25.25
2018-09-20T12:02:39.472Z,25.00
2018-09-20T12:05:06.145Z,24.79
2018-09-20T12:07:32.964Z,24.55
2018-09-20T12:09:59.597Z,24.52
2018-09-20T12:12:26.414Z,24.85
2018-09-20T12:14:54.964Z,25.48
2018-09-20T12:17:19.874Z,25.67
2018-09-20T12:19:46.840Z,25.82
2018-09-20T12:22:13.433Z,25.89
2018-09-20T12:24:40.641Z,25.91
2018-09-20T12:27:07.515Z,25.42
2018-09-20T12:29:34.205Z,25.46
2018-09-20T12:32:00.908Z,25.64
2018-09-20T12:34:27.484Z,25.06
2018-09-20T12:36:54.255Z,25.25
2018-09-20T12:39:20.858Z,25.11
2018-09-20T12:41:47.595Z,24.70
2018-09-20T12:44:14.636Z,24.91
2018-09-20T12:46:43.588Z,25.46
2018-09-20T12:49:08.138Z,25.65
2018-09-20T12:51:34.887Z,25.73
2018-09-20T12:54:01.529Z,25.96
2018-09-20T12:56:28.269Z,25.96
2018-09-20T12:58:55.007Z,25.90
2018-09-20T13:01:21.989Z,25.61
2018-09-20T13:03:48.695Z,25.63
2018-09-20T13:06:18.614Z,25.41
2018-09-20T13:08:45.300Z,25.43
2018-09-20T13:11:11.920Z,25.32
2018-09-20T13:13:38.637Z,25.28
2018-09-20T13:16:05.240Z,25.59
2018-09-20T13:18:31.975Z,25.56
2018-09-20T13:20:58.620Z,25.58
2018-09-20T13:23:25.271Z,25.60
2018-09-20T13:25:51.961Z,25.30
2018-09-20T13:28:18.661Z,25.15
2018-09-20T13:30:45.359Z,24.99
2018-09-20T13:33:12.005Z,24.77
2018-09-20T13:35:38.645Z,24.50
2018-09-20T13:38:05.307Z,25.05
2018-09-20T13:40:33.317Z,25.29
2018-09-20T13:42:58.667Z,25.62
2018-09-20T13:45:25.355Z,25.82
2018-09-20T13:47:52.034Z,25.93
2018-09-20T13:50:18.797Z,25.93
2018-09-20T13:52:45.495Z,26.04
2018-09-20T13:55:12.148Z,26.05
2018-09-20T13:57:38.847Z,25.75
2018-09-20T14:00:05.490Z,25.50
2018-09-20T14:02:32.252Z,25.45
2018-09-20T14:04:58.856Z,25.54
2018-09-20T14:07:25.503Z,25.92
2018-09-20T14:09:54.826Z,25.93
2018-09-20T14:12:21.477Z,26.08
2018-09-20T14:14:48.171Z,26.03
2018-09-20T14:17:14.824Z,26.14
2018-09-20T14:19:41.496Z,26.22
2018-09-20T14:22:08.129Z,25.90
2018-09-20T14:24:34.829Z,25.62
2018-09-20T14:27:01.561Z,25.52
2018-09-20T14:29:28.157Z,25.60
2018-09-20T14:31:54.818Z,25.74
2018-09-20T14:34:21.527Z,25.87
2018-09-20T14:36:48.205Z,25.98
2018-09-20T14:39:14.827Z,25.96
2018-09-20T14:41:42.149Z,26.09
2018-09-20T14:44:08.801Z,26.09
2018-09-20T14:46:35.500Z,26.12
2018-09-20T14:49:02.172Z,25.78
2018-09-20T14:51:28.791Z,25.79
2018-09-20T14:53:55.454Z,26.01
2018-09-20T14:56:24.148Z,25.96
2018-09-20T14:58:48.804Z,25.98
2018-09-20T15:01:17.813Z,25.96
2018-09-20T15:03:44.589Z,26.01
2018-09-20T15:06:11.238Z,26.06
2018-09-20T15:08:38.041Z,26.00
2018-09-20T15:11:04.711Z,26.07
2018-09-20T15:13:31.343Z,26.17
2018-09-20T15:15:58.041Z,26.06
2018-09-20T15:18:24.732Z,26.05
2018-09-20T15:20:51.342Z,25.86
2018-09-20T15:23:18.054Z,25.72
2018-09-20T15:25:44.666Z,25.85
2018-09-20T15:28:13.177Z,25.96
2018-09-20T15:30:38.038Z,25.87
2018-09-20T15:33:04.712Z,25.78
2018-09-20T15:35:31.355Z,25.81
2018-09-20T15:37:58.089Z,25.90
2018-09-20T15:40:24.829Z,25.85
2018-09-20T15:42:54.808Z,25.82
2018-09-20T15:45:21.498Z,25.94
2018-09-20T15:47:48.143Z,25.89
2018-09-20T15:50:14.822Z,25.84
2018-09-20T15:52:41.462Z,25.83
2018-09-20T15:55:08.106Z,25.78
2018-09-20T15:57:34.814Z,25.77
2018-09-20T16:00:01.484Z,25.85
2018-09-20T16:02:28.206Z,25.93
2018-09-20T16:04:54.833Z,25.89
2018-09-20T16:10:08.353Z,25.80
2018-09-20T16:12:38.371Z,25.77
2018-09-20T16:15:05.028Z,25.74
2018-09-20T16:17:31.669Z,25.74
2018-09-20T16:19:59.383Z,25.73
2018-09-20T16:22:24.956Z,25.69
2018-09-20T16:24:51.947Z,25.69
2018-09-20T16:27:20.858Z,25.68
2018-09-20T16:29:48.613Z,25.68
2018-09-20T16:32:15.296Z,25.73
2018-09-20T16:34:41.934Z,25.99
2018-09-20T16:37:08.623Z,25.92
2018-09-20T16:39:35.356Z,25.95
2018-09-20T16:42:01.960Z,25.84
2018-09-20T16:44:28.599Z,25.77
2018-09-20T16:46:55.344Z,25.62
2018-09-20T16:49:22.025Z,25.59
2018-09-20T16:51:50.105Z,25.56
2018-09-20T16:54:15.459Z,25.46
2018-09-20T16:56:42.098Z,25.45
2018-09-20T16:59:08.774Z,25.42
2018-09-20T17:01:35.387Z,25.40
2018-09-20T17:04:02.041Z,25.48
2018-09-20T17:06:28.760Z,25.45
2018-09-20T17:08:55.395Z,25.48
2018-09-20T17:11:24.095Z,25.38
2018-09-20T17:13:48.720Z,25.37
2018-09-20T17:16:16.809Z,25.35
2018-09-20T17:18:42.085Z,25.32
2018-09-20T17:21:08.716Z,25.39
2018-09-20T17:23:35.387Z,25.37
2018-09-20T17:26:02.069Z,25.34
2018-09-20T17:28:28.719Z,25.35
2018-09-20T17:30:55.369Z,25.33
2018-09-20T17:33:22.098Z,25.28
2018-09-20T17:35:52.194Z,25.26
2018-09-20T17:38:18.831Z,25.19
2018-09-20T17:40:45.570Z,25.14
2018-09-20T17:43:12.165Z,25.14
2018-09-20T17:45:38.825Z,25.14
2018-09-20T17:48:08.781Z,25.14
2018-09-20T17:50:35.495Z,25.17
2018-09-20T17:53:02.162Z,25.16
2018-09-20T17:55:28.773Z,25.07
2018-09-20T17:57:55.455Z,25.09
2018-09-20T18:00:22.142Z,25.07
2018-09-20T18:02:48.780Z,25.05
2018-09-20T18:05:15.495Z,25.04
2018-09-20T18:07:42.239Z,25.04
2018-09-20T18:10:08.884Z,25.11
2018-09-20T18:15:02.299Z,25.20
2018-09-20T18:17:28.889Z,25.22
2018-09-20T18:19:55.586Z,25.21
2018-09-20T18:22:22.218Z,25.16
2018-09-20T18:24:48.901Z,25.14
2018-09-20T18:27:15.538Z,25.14
2018-09-20T18:29:43.569Z,25.13
2018-09-20T18:32:08.874Z,25.13
2018-09-20T18:34:38.755Z,25.11
2018-09-20T18:37:05.526Z,25.10
2018-09-20T18:39:32.166Z,25.11
2018-09-20T18:41:58.805Z,25.09
2018-09-20T18:44:25.454Z,25.09
2018-09-20T18:46:52.116Z,25.08
2018-09-20T18:49:20.132Z,25.07
2018-09-20T18:51:45.503Z,25.06
2018-09-20T18:54:13.490Z,25.06
2018-09-20T18:56:38.852Z,25.07
2018-09-20T18:59:05.499Z,25.05
2018-09-20T19:01:33.443Z,25.03
2018-09-20T19:03:58.847Z,25.03
2018-09-20T19:06:25.523Z,25.03
2018-09-20T19:08:52.161Z,25.04
2018-09-20T19:11:18.861Z,25.05
2018-09-20T19:13:45.542Z,25.00
2018-09-20T19:16:12.155Z,25.02
2018-09-20T19:18:38.829Z,24.99
2018-09-20T19:21:05.513Z,24.99
2018-09-20T19:23:32.152Z,24.99
2018-09-20T19:25:58.787Z,24.98
2018-09-20T19:28:25.531Z,24.98
2018-09-20T19:30:52.254Z,24.97
2018-09-20T19:33:18.860Z,24.94
2018-09-20T19:35:45.512Z,24.93
2018-09-20T19:38:12.250Z,24.92
2018-09-20T19:40:38.992Z,24.93
2018-09-20T19:45:54.351Z,24.89
2018-09-20T19:48:21.259Z,24.89
2018-09-20T19:50:49.308Z,24.86
2018-09-20T19:53:14.600Z,24.86
2018-09-20T19:55:41.253Z,24.84
2018-09-20T19:58:07.987Z,24.84
2018-09-20T20:00:34.693Z,24.83
2018-09-20T20:03:04.123Z,24.80
2018-09-20T20:05:30.764Z,24.80
2018-09-20T20:07:57.402Z,24.81
2018-09-20T20:10:24.090Z,24.83
2018-09-20T20:12:50.724Z,24.80
2018-09-20T20:15:17.411Z,24.80
2018-09-20T20:17:44.051Z,24.79
2018-09-20T20:20:10.788Z,24.80
2018-09-20T20:22:37.450Z,24.78
2018-09-20T20:25:05.395Z,24.78
2018-09-20T20:27:30.781Z,24.76
2018-09-20T20:29:57.417Z,24.76
2018-09-20T20:32:24.068Z,24.78
2018-09-20T20:34:50.716Z,24.76
2018-09-20T20:37:17.404Z,24.66
2018-09-20T20:39:44.104Z,24.73
2018-09-20T20:42:10.765Z,24.72
2018-09-20T20:44:37.446Z,24.71
2018-09-20T20:47:05.429Z,24.67
2018-09-20T20:49:30.762Z,24.67
2018-09-20T20:51:57.393Z,24.72
2018-09-20T20:54:24.081Z,24.66
2018-09-20T20:56:50.729Z,24.66
2018-09-20T20:59:19.619Z,24.68
2018-09-20T21:01:44.041Z,24.63
2018-09-20T21:04:10.716Z,24.65
2018-09-20T21:06:37.449Z,24.65
2018-09-20T21:09:04.180Z,24.62
2018-09-20T21:11:30.831Z,24.61
2018-09-20T21:13:57.509Z,24.60
2018-09-20T21:16:24.155Z,24.60
2018-09-20T21:18:50.847Z,24.63
2018-09-20T21:21:17.488Z,24.61
2018-09-20T21:23:44.124Z,24.57
2018-09-20T21:26:10.785Z,24.59
2018-09-20T21:28:40.890Z,24.52
2018-09-20T21:31:07.536Z,24.51
2018-09-20T21:33:34.220Z,24.55
2018-09-20T21:36:00.864Z,24.59
2018-09-20T21:38:27.544Z,24.50
2018-09-20T21:40:54.264Z,24.55
2018-09-20T21:43:21.004Z,24.51
2018-09-20T21:45:47.669Z,24.55
2018-09-20T21:48:14.300Z,24.49
2018-09-20T21:50:41.273Z,24.45
2018-09-20T21:53:07.910Z,24.51
2018-09-20T21:55:34.646Z,24.47
2018-09-20T21:58:01.287Z,24.46
2018-09-20T22:00:27.967Z,24.49
2018-09-20T22:02:54.582Z,24.46
2018-09-20T22:05:24.254Z,24.38
2018-09-20T22:07:50.962Z,24.44
2018-09-20T22:10:17.600Z,24.33
2018-09-20T22:12:44.296Z,24.39
2018-09-20T22:15:10.982Z,24.40
2018-09-20T22:17:37.620Z,24.40
2018-09-20T22:20:04.357Z,24.39
2018-09-20T22:22:30.995Z,24.35
2018-09-20T22:24:57.643Z,24.37
2018-09-20T22:27:24.295Z,24.34
2018-09-20T22:29:50.973Z,24.36
2018-09-20T22:32:17.689Z,24.32
2018-09-20T22:34:44.424Z,24.32
2018-09-20T22:37:11.002Z,24.23
2018-09-20T22:39:37.753Z,24.27
2018-09-20T22:42:04.337Z,24.31
2018-09-20T22:44:31.086Z,24.33
2018-09-20T22:46:57.781Z,24.30
2018-09-20T22:49:24.462Z,24.25
2018-09-20T22:51:51.089Z,24.24
2018-09-20T22:54:18.954Z,24.22
2018-09-20T22:56:47.355Z,24.24
2018-09-20T22:59:14.009Z,24.26
2018-09-20T23:01:40.641Z,24.23
2018-09-20T23:04:07.281Z,24.18
2018-09-20T23:06:35.210Z,24.21
2018-09-20T23:09:00.566Z,24.19
2018-09-20T23:11:27.326Z,24.22
2018-09-20T23:13:57.151Z,24.17
2018-09-20T23:16:23.784Z,24.13
2018-09-20T23:18:50.433Z,24.16
2018-09-20T23:21:17.088Z,24.15
2018-09-20T23:23:43.723Z,24.12
2018-09-20T23:26:10.359Z,24.16
2018-09-20T23:28:38.431Z,24.12
2018-09-20T23:31:05.183Z,24.10
2018-09-20T23:33:30.341Z,24.11
2018-09-20T23:35:56.992Z,24.10
2018-09-20T23:38:23.663Z,24.01
2018-09-20T23:40:50.312Z,24.05
2018-09-20T23:43:16.982Z,23.94
2018-09-20T23:45:43.586Z,24.07
2018-09-20T23:48:10.277Z,24.06
2018-09-20T23:50:36.887Z,24.03
2018-09-20T23:53:03.612Z,24.07
2018-09-20T23:55:30.295Z,24.04
2018-09-20T23:57:56.949Z,24.00
